Terminal Aerodrome Forecast
Issued by NWS

Home | Current Version | Previous Version | Text Only | Print | Product List | Glossary On
Versions: 1 2 3 4 5 6 7 8 9 10 11 12 13 14 15 16 17
631
FTUS42 KTAE 211738
TAFDHN
TAF
KDHN 211738Z 2118/2218 12008KT P6SM VCTS SCT025 OVC040CB
      TEMPO 2118/2122 12008G15KT 2SM TSRA BKN007CB OVC015
     FM220100 VRB03KT P6SM SCT007 BKN015
     FM220700 VRB03KT P6SM VCSH BKN008
     FM221300 13008KT P6SM VCTS SCT015 OVC030CB=

USA.gov is the U.S. government's official web portal to all federal, state and local government web resources and services.